Time;durP1;ratioP1;P1;durP2;ratioP2;P2;SDS_P1;SDS_P2;PMS_P1;PMS_P2;Temp;Humidity;BMP_temperature;BMP_pressure;BME280_temperature;BME280_humidity;BME280_pressure;Samples;Min_cycle;Max_cycle;Signal;HPM_P1;HPM_P2
2021/05/07 00:00:30;;;;;;;6.43;1.55;;;2.50;99.90;;;;;;5012506;28;20032;-79
2021/05/07 00:02:55;;;;;;;2.65;1.60;;;2.50;99.90;;;;;;5012349;28;20025;-79
2021/05/07 00:05:21;;;;;;;6.75;1.80;;;2.40;99.90;;;;;;5011758;28;20028;-79
2021/05/07 00:07:46;;;;;;;7.18;1.65;;;2.40;99.90;;;;;;5012392;28;20513;-79
2021/05/07 00:10:15;;;;;;;6.68;2.20;;;2.50;99.90;;;;;;5012414;28;20022;-79
2021/05/07 00:12:42;;;;;;;5.97;2.00;;;2.60;99.90;;;;;;5027466;28;20034;-79
2021/05/07 00:15:08;;;;;;;5.22;1.73;;;2.70;99.90;;;;;;5026771;28;20026;-79
2021/05/07 00:17:34;;;;;;;2.40;1.63;;;2.80;99.90;;;;;;5012228;28;20029;-79
2021/05/07 00:20:00;;;;;;;8.60;2.42;;;2.90;99.90;;;;;;5012107;28;20033;-79
2021/05/07 00:22:25;;;;;;;5.10;2.55;;;3.00;99.90;;;;;;5012053;28;20033;-79
2021/05/07 00:24:51;;;;;;;10.07;2.20;;;3.10;99.90;;;;;;5011816;28;20030;-79
2021/05/07 00:27:17;;;;;;;8.93;3.15;;;3.10;99.90;;;;;;5010918;28;20017;-79
2021/05/07 00:29:46;;;;;;;4.45;1.65;;;3.10;99.90;;;;;;5010879;28;20117;-79
2021/05/07 00:32:11;;;;;;;9.25;2.05;;;3.00;99.90;;;;;;5011968;28;20026;-79
2021/05/07 00:34:37;;;;;;;6.15;2.00;;;2.90;99.90;;;;;;5010027;28;20030;-79
2021/05/07 00:37:02;;;;;;;6.57;2.40;;;2.80;99.90;;;;;;5011985;28;20101;-79
2021/05/07 00:39:28;;;;;;;6.55;2.38;;;2.80;99.90;;;;;;5011971;28;20088;-79
2021/05/07 00:41:54;;;;;;;7.43;2.40;;;2.80;99.90;;;;;;5027116;28;20033;-79
2021/05/07 00:44:20;;;;;;;17.77;3.20;;;2.80;99.90;;;;;;5011193;28;20018;-80
2021/05/07 00:46:46;;;;;;;16.08;3.20;;;2.80;99.90;;;;;;5010403;28;20505;-79
2021/05/07 00:49:12;;;;;;;15.07;3.13;;;2.90;99.90;;;;;;5011677;28;20075;-79
2021/05/07 00:51:37;;;;;;;13.95;3.28;;;3.00;99.90;;;;;;5011872;28;20482;-79
2021/05/07 00:54:04;;;;;;;6.38;2.83;;;3.10;99.90;;;;;;5026265;28;20052;-79
2021/05/07 00:56:30;;;;;;;12.82;2.92;;;3.10;99.90;;;;;;5011800;28;20041;-80
2021/05/07 00:58:55;;;;;;;5.97;2.30;;;3.10;99.90;;;;;;5011598;28;20034;-79
2021/05/07 01:01:21;;;;;;;14.05;2.30;;;3.00;99.90;;;;;;5011778;28;20030;-79
2021/05/07 01:03:46;;;;;;;8.98;2.70;;;2.90;99.90;;;;;;5011733;28;20390;-79
2021/05/07 01:06:12;;;;;;;13.63;4.28;;;2.80;99.90;;;;;;5015863;28;20101;-79
2021/05/07 01:08:38;;;;;;;15.60;2.90;;;2.70;99.90;;;;;;5014493;28;20014;-80
2021/05/07 01:11:04;;;;;;;3.85;1.95;;;2.70;99.90;;;;;;5015703;28;20453;-80
2021/05/07 01:13:30;;;;;;;7.95;2.30;;;2.70;99.90;;;;;;5015546;28;20022;-79
2021/05/07 01:15:55;;;;;;;6.70;2.17;;;2.60;99.90;;;;;;5014940;28;20105;-79
2021/05/07 01:18:21;;;;;;;14.38;1.90;;;2.60;99.90;;;;;;5015581;28;20029;-80
2021/05/07 01:20:47;;;;;;;7.97;2.17;;;2.50;99.90;;;;;;5015446;28;20038;-80
2021/05/07 01:23:12;;;;;;;3.50;2.03;;;2.50;99.90;;;;;;5015249;28;20026;-80
2021/05/07 01:25:42;;;;;;;4.05;2.35;;;2.50;99.90;;;;;;5014909;28;20486;-80
2021/05/07 01:28:10;;;;;;;5.60;1.70;;;2.40;99.90;;;;;;5014113;28;20028;-79
2021/05/07 01:30:44;;;;;;;3.65;1.60;;;2.40;99.90;;;;;;5015327;28;20389;-79
2021/05/07 01:33:14;;;;;;;2.13;1.85;;;2.30;99.90;;;;;;5015260;28;20037;-80
2021/05/07 01:35:40;;;;;;;3.80;1.92;;;2.30;99.90;;;;;;5014617;28;20026;-79
2021/05/07 01:38:09;;;;;;;9.57;1.80;;;2.20;99.90;;;;;;5015209;28;20030;-80
2021/05/07 01:40:40;;;;;;;3.85;1.73;;;2.20;99.90;;;;;;5014964;28;20022;-79
2021/05/07 01:43:05;;;;;;;4.07;1.58;;;2.10;99.90;;;;;;5015014;28;20080;-80
2021/05/07 01:45:34;;;;;;;4.40;2.05;;;2.00;99.90;;;;;;5013148;28;20026;-80
2021/05/07 01:48:00;;;;;;;10.60;1.75;;;1.90;99.90;;;;;;5013544;28;20080;-80
2021/05/07 01:50:28;;;;;;;8.45;1.55;;;1.90;99.90;;;;;;5014802;28;20421;-80
2021/05/07 01:52:57;;;;;;;5.82;1.63;;;1.80;99.90;;;;;;5030047;28;20030;-80
2021/05/07 01:55:25;;;;;;;9.98;1.80;;;1.90;99.90;;;;;;5014164;28;20030;-80
2021/05/07 01:57:52;;;;;;;9.60;1.90;;;1.90;99.90;;;;;;5014828;28;20021;-80
2021/05/07 02:00:20;;;;;;;8.35;2.00;;;1.90;99.90;;;;;;5014737;28;20076;-80
2021/05/07 02:02:46;;;;;;;7.63;1.90;;;1.80;99.90;;;;;;5014603;28;20441;-80
2021/05/07 02:05:13;;;;;;;9.77;2.10;;;1.80;99.90;;;;;;5012690;28;20057;-80
2021/05/07 02:07:39;;;;;;;7.50;2.20;;;1.90;99.90;;;;;;5011740;28;20123;-80
2021/05/07 02:10:09;;;;;;;14.15;2.78;;;1.90;99.90;;;;;;5021619;28;20524;-80
2021/05/07 02:12:34;;;;;;;6.97;2.30;;;2.00;99.90;;;;;;5013447;28;20454;-80
2021/05/07 02:15:00;;;;;;;6.28;2.20;;;2.00;99.90;;;;;;5013681;28;20062;-80
2021/05/07 02:17:26;;;;;;;13.45;2.67;;;2.00;99.90;;;;;;5013118;28;20040;-80
2021/05/07 02:19:51;;;;;;;11.57;2.70;;;1.90;99.90;;;;;;5014363;28;20030;-80
2021/05/07 02:22:17;;;;;;;12.20;2.65;;;1.90;99.90;;;;;;5014275;28;20022;-80
2021/05/07 02:24:42;;;;;;;11.00;3.22;;;1.90;99.90;;;;;;5012475;28;20037;-80
2021/05/07 02:27:08;;;;;;;6.88;2.88;;;1.90;99.90;;;;;;5014321;28;20121;-80
2021/05/07 02:29:33;;;;;;;7.85;2.97;;;2.00;99.90;;;;;;5013072;28;20030;-80
2021/05/07 02:31:59;;;;;;;20.42;3.63;;;2.00;99.90;;;;;;5014145;28;20036;-80
2021/05/07 02:34:24;;;;;;;19.15;3.35;;;2.20;99.90;;;;;;5013412;28;20100;-80
2021/05/07 02:36:50;;;;;;;17.15;4.00;;;2.30;99.90;;;;;;5014121;28;20057;-80
2021/05/07 02:39:16;;;;;;;22.42;3.38;;;2.40;99.90;;;;;;5014019;28;20034;-80
2021/05/07 02:41:43;;;;;;;15.85;3.33;;;2.40;99.90;;;;;;5014061;28;20101;-80
2021/05/07 02:44:09;;;;;;;10.70;3.30;;;2.50;99.90;;;;;;5013268;28;20045;-80
2021/05/07 02:46:36;;;;;;;17.30;3.95;;;2.60;99.90;;;;;;5011130;28;20940;-80
2021/05/07 02:49:03;;;;;;;6.65;3.63;;;2.70;99.90;;;;;;5013813;28;20018;-80
2021/05/07 02:51:30;;;;;;;9.18;3.28;;;2.70;99.90;;;;;;5013934;28;20041;-80
2021/05/07 02:53:56;;;;;;;14.75;3.28;;;2.80;99.90;;;;;;5028194;28;20501;-80
2021/05/07 02:56:21;;;;;;;7.57;2.58;;;2.90;99.90;;;;;;5013747;28;20076;-80
2021/05/07 02:58:47;;;;;;;13.07;2.65;;;2.90;99.90;;;;;;5012859;28;20486;-80
2021/05/07 03:01:13;;;;;;;7.38;2.90;;;2.90;99.90;;;;;;5012554;28;20030;-80
2021/05/07 03:03:38;;;;;;;7.45;2.40;;;2.80;99.90;;;;;;5013297;28;20101;-80
2021/05/07 03:06:04;;;;;;;5.25;2.45;;;2.70;99.90;;;;;;5013524;28;20106;-80
2021/05/07 03:08:29;;;;;;;5.57;2.70;;;2.80;99.90;;;;;;5013526;28;20022;-80
2021/05/07 03:10:55;;;;;;;7.35;2.63;;;2.80;99.90;;;;;;5013560;28;20033;-80
2021/05/07 03:13:21;;;;;;;7.65;2.42;;;2.70;99.90;;;;;;5013280;28;20160;-80
2021/05/07 03:15:46;;;;;;;11.05;2.40;;;2.70;99.90;;;;;;5012678;28;20116;-80
2021/05/07 03:18:17;;;;;;;5.32;2.20;;;2.70;99.90;;;;;;5012065;28;20061;-80
2021/05/07 03:20:43;;;;;;;5.28;2.25;;;2.70;99.90;;;;;;5013217;28;20014;-80
2021/05/07 03:23:10;;;;;;;8.38;2.95;;;2.70;99.90;;;;;;5028210;28;20034;-79
2021/05/07 03:25:35;;;;;;;3.78;2.63;;;2.70;99.90;;;;;;5012575;28;20026;-80
2021/05/07 03:28:01;;;;;;;11.57;3.15;;;2.70;99.90;;;;;;5027688;28;20033;-79
2021/05/07 03:30:27;;;;;;;12.32;2.67;;;2.80;99.90;;;;;;5028258;28;20437;-80
2021/05/07 03:32:52;;;;;;;6.18;2.50;;;2.80;99.90;;;;;;5013048;28;20024;-80
2021/05/07 03:35:18;;;;;;;10.90;2.83;;;2.80;99.90;;;;;;5027598;28;20021;-80
2021/05/07 03:37:43;;;;;;;7.57;2.60;;;2.90;99.90;;;;;;5012734;28;20032;-80
2021/05/07 03:40:10;;;;;;;9.90;2.75;;;3.00;99.90;;;;;;5028039;28;20464;-80
2021/05/07 03:42:35;;;;;;;8.73;2.35;;;3.10;99.90;;;;;;5027972;28;20026;-80
2021/05/07 03:45:01;;;;;;;9.77;2.63;;;3.10;99.90;;;;;;5012175;28;20021;-80
2021/05/07 03:47:27;;;;;;;18.63;3.20;;;3.20;99.90;;;;;;5011944;28;20026;-79
2021/05/07 03:49:52;;;;;;;20.08;3.50;;;3.40;99.90;;;;;;5011468;28;20029;-80
2021/05/07 03:52:18;;;;;;;13.18;2.97;;;3.40;99.90;;;;;;5012682;28;20029;-80
2021/05/07 03:54:44;;;;;;;15.07;4.97;;;3.40;99.90;;;;;;5011909;28;20034;-80
2021/05/07 03:57:10;;;;;;;26.33;9.23;;;3.50;99.90;;;;;;5012592;28;20083;-80
2021/05/07 03:59:36;;;;;;;12.68;3.17;;;3.60;99.90;;;;;;5012564;28;20569;-79
2021/05/07 04:02:02;;;;;;;8.85;2.65;;;3.80;99.90;;;;;;5012507;28;20022;-80
2021/05/07 04:04:27;;;;;;;16.75;3.40;;;3.80;99.90;;;;;;5011785;28;20157;-79
2021/05/07 04:06:53;;;;;;;12.25;3.17;;;3.80;99.90;;;;;;5012535;28;20022;-79
2021/05/07 04:09:26;;;;;;;11.60;3.45;;;3.80;99.90;;;;;;5011173;28;20034;-79
2021/05/07 04:11:54;;;;;;;13.77;2.92;;;3.90;99.90;;;;;;5011306;28;20030;-80
2021/05/07 04:14:20;;;;;;;16.10;3.53;;;3.90;99.90;;;;;;5010474;28;20482;-80
2021/05/07 04:16:46;;;;;;;18.23;6.80;;;3.90;99.90;;;;;;5012254;28;20038;-79
2021/05/07 04:19:11;;;;;;;8.68;3.80;;;4.00;99.90;;;;;;5012161;28;20367;-79
2021/05/07 04:21:37;;;;;;;12.23;4.68;;;4.00;99.90;;;;;;5012205;28;20026;-79
2021/05/07 04:24:03;;;;;;;13.27;4.40;;;4.10;99.90;;;;;;5010109;28;20034;-80
2021/05/07 04:26:29;;;;;;;10.63;3.15;;;4.10;99.90;;;;;;5012217;28;20062;-79
2021/05/07 04:28:54;;;;;;;6.20;3.55;;;4.10;99.90;;;;;;5012053;28;20439;-79
2021/05/07 04:31:20;;;;;;;11.45;2.58;;;4.20;99.90;;;;;;5027260;28;20022;-79
2021/05/07 04:33:45;;;;;;;6.13;2.17;;;4.20;99.90;;;;;;5026577;28;20441;-79
2021/05/07 04:36:11;;;;;;;12.13;3.35;;;4.20;99.90;;;;;;5012009;28;20045;-79
2021/05/07 04:38:37;;;;;;;14.10;3.80;;;4.10;99.90;;;;;;5011039;28;20030;-79
2021/05/07 04:41:03;;;;;;;9.40;1.98;;;4.10;99.90;;;;;;5011847;28;20526;-79
2021/05/07 04:43:28;;;;;;;9.18;2.45;;;4.10;99.90;;;;;;5011878;28;20033;-79
2021/05/07 04:45:54;;;;;;;13.50;3.83;;;4.10;99.90;;;;;;5011255;28;20394;-80
2021/05/07 04:48:20;;;;;;;9.75;2.10;;;4.00;99.90;;;;;;5010946;28;20026;-79
2021/05/07 04:50:45;;;;;;;5.00;1.92;;;4.00;99.90;;;;;;5011816;28;20038;-80
2021/05/07 04:53:11;;;;;;;7.82;1.98;;;4.00;99.90;;;;;;5011753;28;20029;-80
2021/05/07 04:55:37;;;;;;;10.82;2.40;;;4.00;99.90;;;;;;5011122;28;20406;-80
2021/05/07 04:58:03;;;;;;;4.38;1.77;;;3.90;99.90;;;;;;5011787;28;20474;-80
2021/05/07 05:00:28;;;;;;;6.43;1.75;;;4.00;99.90;;;;;;5011696;28;20040;-79
2021/05/07 05:02:54;;;;;;;5.32;1.80;;;3.90;99.90;;;;;;5011659;28;20032;-79
2021/05/07 05:05:20;;;;;;;6.50;2.20;;;4.00;99.90;;;;;;5011064;28;20032;-80
2021/05/07 05:07:52;;;;;;;7.63;1.80;;;4.00;99.90;;;;;;5011829;28;20101;-79
2021/05/07 05:10:19;;;;;;;7.60;2.30;;;4.00;99.90;;;;;;5024080;28;20113;-80
2021/05/07 05:12:45;;;;;;;6.78;2.03;;;4.00;99.90;;;;;;5003389;28;20022;-79
2021/05/07 05:15:11;;;;;;;4.03;2.00;;;3.90;99.90;;;;;;5010971;28;20076;-79
2021/05/07 05:17:37;;;;;;;7.15;1.77;;;4.00;99.90;;;;;;5011467;28;20064;-80
2021/05/07 05:20:04;;;;;;;5.63;2.10;;;4.00;99.90;;;;;;5011541;28;20053;-80
2021/05/07 05:22:30;;;;;;;6.28;2.08;;;4.00;99.90;;;;;;5011308;28;20018;-79
2021/05/07 05:24:55;;;;;;;6.03;2.67;;;4.00;99.90;;;;;;5009683;28;20500;-79
2021/05/07 05:27:21;;;;;;;5.30;2.15;;;4.10;99.90;;;;;;5011570;28;20053;-79
2021/05/07 05:29:46;;;;;;;5.22;2.03;;;4.10;99.90;;;;;;5011479;28;20030;-79
2021/05/07 05:32:12;;;;;;;9.80;2.75;;;4.20;99.90;;;;;;5011493;28;20026;-80
2021/05/07 05:34:38;;;;;;;3.05;1.92;;;4.20;99.90;;;;;;5010739;28;20022;-80
2021/05/07 05:37:04;;;;;;;7.88;2.30;;;4.30;99.90;;;;;;5010197;28;20022;-80
2021/05/07 05:39:30;;;;;;;11.73;2.65;;;4.30;99.90;;;;;;5011206;28;20434;-79
2021/05/07 05:41:57;;;;;;;8.52;2.53;;;4.30;99.90;;;;;;5010130;28;20029;-80
2021/05/07 05:44:23;;;;;;;6.55;2.80;;;4.40;99.90;;;;;;5010620;28;20018;-79
2021/05/07 05:46:48;;;;;;;9.00;2.60;;;4.40;99.90;;;;;;5010321;28;20022;-80
2021/05/07 05:49:14;;;;;;;25.50;4.00;;;4.40;99.90;;;;;;5011374;28;20033;-79
2021/05/07 05:51:40;;;;;;;10.15;3.13;;;4.50;99.90;;;;;;5014930;28;20034;-79
2021/05/07 05:54:05;;;;;;;5.15;2.67;;;4.50;99.90;;;;;;5014184;28;20044;-79
2021/05/07 05:56:31;;;;;;;10.15;2.63;;;4.40;99.90;;;;;;5030134;28;20029;-80
2021/05/07 05:58:57;;;;;;;6.63;2.47;;;4.50;99.90;;;;;;5014612;28;20083;-79
2021/05/07 06:01:22;;;;;;;7.78;3.40;;;4.50;99.90;;;;;;5013002;28;20029;-79
2021/05/07 06:03:48;;;;;;;13.25;3.17;;;4.40;99.90;;;;;;5013661;28;20026;-79
2021/05/07 06:06:14;;;;;;;3.55;2.13;;;4.40;99.90;;;;;;5029635;28;20045;-79
2021/05/07 06:08:39;;;;;;;5.70;2.42;;;4.40;99.90;;;;;;5014567;28;20084;-78
2021/05/07 06:11:05;;;;;;;7.50;2.75;;;4.40;99.90;;;;;;5029617;28;20026;-78
2021/05/07 06:13:30;;;;;;;7.03;2.53;;;4.40;99.90;;;;;;5014714;28;20026;-78
2021/05/07 06:15:56;;;;;;;66.60;15.80;;;4.40;99.90;;;;;;5013705;28;20053;-78
2021/05/07 06:18:22;;;;;;;22.20;7.35;;;4.50;99.90;;;;;;5029436;28;20422;-78
2021/05/07 06:20:47;;;;;;;5.22;2.83;;;4.50;99.90;;;;;;5014319;28;20084;-78
2021/05/07 06:23:13;;;;;;;7.45;2.60;;;4.50;99.90;;;;;;5014048;28;20552;-78
2021/05/07 06:25:38;;;;;;;13.23;2.97;;;4.60;99.90;;;;;;5013551;28;20021;-78
2021/05/07 06:28:04;;;;;;;11.18;2.78;;;4.60;99.90;;;;;;5029305;28;20018;-78
2021/05/07 06:30:30;;;;;;;5.30;2.45;;;4.60;99.90;;;;;;5014107;28;20073;-78
2021/05/07 06:32:55;;;;;;;11.48;3.08;;;4.70;99.90;;;;;;5013931;28;20387;-78
2021/05/07 06:35:21;;;;;;;5.82;2.88;;;4.70;99.90;;;;;;5013466;28;20105;-78
2021/05/07 06:37:46;;;;;;;33.40;19.15;;;4.80;99.90;;;;;;5013961;28;20502;-78
2021/05/07 06:40:12;;;;;;;44.42;20.50;;;4.90;99.90;;;;;;5029129;28;20025;-78
2021/05/07 06:42:38;;;;;;;7.55;3.67;;;4.90;99.90;;;;;;5028924;28;20022;-78
2021/05/07 06:45:07;;;;;;;14.23;4.97;;;5.00;99.90;;;;;;5013087;28;20029;-78
2021/05/07 06:47:33;;;;;;;15.75;7.32;;;5.00;99.90;;;;;;5028282;28;20044;-78
2021/05/07 06:49:58;;;;;;;31.58;7.75;;;5.10;99.90;;;;;;5013728;28;20578;-79
2021/05/07 06:52:24;;;;;;;19.80;6.55;;;5.00;99.90;;;;;;5013610;28;20032;-80
2021/05/07 06:54:50;;;;;;;50.75;27.83;;;5.10;99.90;;;;;;5012930;28;20034;-79
2021/05/07 06:57:16;;;;;;;17.55;8.52;;;5.10;99.90;;;;;;5013534;28;20030;-79
2021/05/07 06:59:43;;;;;;;12.98;5.65;;;5.20;99.90;;;;;;5013506;28;20026;-79
2021/05/07 07:02:09;;;;;;;9.93;3.78;;;5.10;99.90;;;;;;5012656;28;20014;-79
2021/05/07 07:04:34;;;;;;;24.77;13.30;;;5.00;99.90;;;;;;5012895;28;20022;-78
2021/05/07 07:07:00;;;;;;;16.00;9.48;;;5.00;99.90;;;;;;5013443;28;20021;-78
2021/05/07 07:09:26;;;;;;;33.80;10.90;;;5.10;99.90;;;;;;5013241;28;20045;-78
2021/05/07 07:11:52;;;;;;;24.50;17.38;;;5.20;99.90;;;;;;5028662;28;20053;-78
2021/05/07 07:14:17;;;;;;;16.40;6.13;;;5.40;99.90;;;;;;5012558;28;20036;-78
2021/05/07 07:16:43;;;;;;;28.30;11.65;;;5.50;99.90;;;;;;5013364;28;20030;-78
2021/05/07 07:19:09;;;;;;;20.20;9.77;;;5.50;99.90;;;;;;5011800;28;20108;-78
2021/05/07 07:21:34;;;;;;;51.70;29.25;;;5.60;99.90;;;;;;5013126;28;20034;-79
2021/05/07 07:24:00;;;;;;;68.40;31.05;;;5.70;99.90;;;;;;5012344;28;20033;-78
2021/05/07 07:26:25;;;;;;;18.80;8.38;;;5.80;99.90;;;;;;5013162;28;20401;-79
2021/05/07 07:28:53;;;;;;;11.93;3.20;;;5.70;99.90;;;;;;5009680;28;20539;-79
2021/05/07 07:31:19;;;;;;;13.18;3.72;;;5.80;99.90;;;;;;5001388;28;20486;-78
2021/05/07 07:33:45;;;;;;;8.05;2.95;;;5.90;99.90;;;;;;4994048;28;20030;-78
2021/05/07 07:36:11;;;;;;;41.35;23.90;;;6.10;99.90;;;;;;4990354;28;20034;-79
2021/05/07 07:38:36;;;;;;;17.15;8.10;;;6.10;99.90;;;;;;4990305;28;20038;-78
2021/05/07 07:41:02;;;;;;;18.70;7.35;;;6.30;99.90;;;;;;4992861;28;20053;-78
2021/05/07 07:43:28;;;;;;;15.18;4.75;;;6.50;99.90;;;;;;4993137;28;20038;-80
2021/05/07 07:45:53;;;;;;;16.98;3.03;;;6.80;99.90;;;;;;4992533;28;20023;-78
2021/05/07 07:48:19;;;;;;;15.70;4.15;;;6.80;99.90;;;;;;4992139;28;20076;-80
2021/05/07 07:50:45;;;;;;;8.68;2.88;;;6.70;99.90;;;;;;5002858;28;20080;-80
2021/05/07 07:53:11;;;;;;;12.30;2.70;;;6.70;99.90;;;;;;5007099;28;20486;-80
2021/05/07 07:55:36;;;;;;;10.43;3.15;;;6.70;99.90;;;;;;5011881;28;20033;-81
2021/05/07 07:58:02;;;;;;;21.02;2.25;;;6.60;99.90;;;;;;5004824;28;20546;-81
2021/05/07 08:00:28;;;;;;;19.40;4.45;;;6.30;99.90;;;;;;4993037;28;20022;-81
2021/05/07 08:02:53;;;;;;;340.27;109.90;;;6.10;99.90;;;;;;5012387;28;20053;-81
2021/05/07 08:05:19;;;;;;;37.03;24.25;;;6.00;99.90;;;;;;5010414;28;20029;-80
2021/05/07 08:07:45;;;;;;;8.30;2.60;;;5.90;99.90;;;;;;5012379;28;20037;-80
2021/05/07 08:10:14;;;;;;;5.13;2.03;;;5.80;99.90;;;;;;5012430;28;20104;-80
2021/05/07 08:12:40;;;;;;;11.45;2.75;;;5.80;99.90;;;;;;5004848;28;20038;-80
2021/05/07 08:15:06;;;;;;;2.10;1.70;;;5.80;99.90;;;;;;5006385;28;20034;-80
2021/05/07 08:17:32;;;;;;;8.50;3.10;;;6.00;99.90;;;;;;4997177;28;20038;-79
2021/05/07 08:19:58;;;;;;;3.45;1.90;;;6.10;99.90;;;;;;4992417;28;20034;-80
2021/05/07 08:22:24;;;;;;;3.42;1.65;;;6.30;99.90;;;;;;5007491;28;20380;-80
2021/05/07 08:24:49;;;;;;;23.38;11.30;;;6.50;99.90;;;;;;5004065;28;20025;-78
2021/05/07 08:27:15;;;;;;;11.85;4.07;;;6.80;99.90;;;;;;5012050;28;20072;-78
2021/05/07 08:29:41;;;;;;;14.27;2.45;;;6.80;99.90;;;;;;5011988;28;20057;-78
2021/05/07 08:32:07;;;;;;;13.15;3.10;;;6.90;99.90;;;;;;5011883;28;20030;-77
2021/05/07 08:34:32;;;;;;;8.07;3.83;;;7.00;99.90;;;;;;5011309;28;20474;-77
2021/05/07 08:36:58;;;;;;;8.85;3.33;;;7.10;99.90;;;;;;5011762;28;20054;-78
2021/05/07 08:39:23;;;;;;;9.40;2.35;;;7.10;99.90;;;;;;5007706;28;20113;-79
2021/05/07 08:41:49;;;;;;;13.82;2.20;;;7.40;99.90;;;;;;4999092;28;20101;-76
2021/05/07 08:44:17;;;;;;;10.77;2.20;;;7.60;99.90;;;;;;5004692;28;20024;-77
2021/05/07 08:46:43;;;;;;;13.10;3.05;;;7.70;99.90;;;;;;5003882;28;20017;-77
2021/05/07 08:49:10;;;;;;;9.23;2.20;;;7.80;99.90;;;;;;5001893;28;20014;-78
2021/05/07 08:51:36;;;;;;;6.70;2.38;;;7.90;99.90;;;;;;4992357;28;20026;-79
2021/05/07 08:54:02;;;;;;;7.75;3.50;;;8.00;99.90;;;;;;4992677;28;20033;-80
2021/05/07 08:56:28;;;;;;;6.07;3.47;;;8.00;99.90;;;;;;4999848;28;20035;-78
2021/05/07 08:58:53;;;;;;;11.43;3.72;;;7.80;99.90;;;;;;5006657;28;20030;-78
2021/05/07 09:01:19;;;;;;;11.65;2.92;;;7.70;99.90;;;;;;5004187;28;20034;-78
2021/05/07 09:03:48;;;;;;;9.77;3.90;;;7.60;99.90;;;;;;4987898;28;20083;-77
2021/05/07 09:06:14;;;;;;;7.32;2.88;;;8.10;99.90;;;;;;4988618;28;20034;-77
2021/05/07 09:08:40;;;;;;;11.60;2.53;;;8.70;99.90;;;;;;4997773;28;20041;-76
2021/05/07 09:11:05;;;;;;;9.68;1.60;;;9.10;99.90;;;;;;5004109;28;20026;-76
2021/05/07 09:13:31;;;;;;;7.20;2.22;;;9.10;99.90;;;;;;5000797;28;20031;-77
2021/05/07 09:16:03;;;;;;;15.98;3.75;;;8.80;99.90;;;;;;4996174;28;20124;-77
2021/05/07 09:18:29;;;;;;;14.73;9.18;;;8.80;99.90;;;;;;4988994;28;20029;-78
2021/05/07 09:20:59;;;;;;;13.70;2.65;;;8.60;99.90;;;;;;5021184;28;20037;-82
2021/05/07 09:23:25;;;;;;;8.35;2.45;;;8.20;99.90;;;;;;4995799;28;20037;-78
2021/05/07 09:26:00;;;;;;;15.98;4.15;;;8.10;99.90;;;;;;4989862;28;20031;-81
2021/05/07 09:28:26;;;;;;;29.92;5.25;;;8.10;99.90;;;;;;5007429;28;20032;-79
2021/05/07 09:30:52;;;;;;;11.68;4.82;;;8.00;99.90;;;;;;4991516;28;20026;-79
2021/05/07 09:33:17;;;;;;;13.77;4.32;;;8.40;99.90;;;;;;4991374;28;20062;-77
2021/05/07 09:35:44;;;;;;;19.65;4.35;;;8.40;99.90;;;;;;5008794;28;20037;-79
2021/05/07 09:38:12;;;;;;;17.23;7.95;;;8.30;99.90;;;;;;5006749;28;20442;-80
2021/05/07 09:40:39;;;;;;;18.25;7.95;;;8.40;99.90;;;;;;4992148;28;20041;-81
2021/05/07 09:43:06;;;;;;;12.18;2.78;;;8.80;99.90;;;;;;5000845;28;20025;-82
2021/05/07 09:45:32;;;;;;;7.88;1.60;;;9.20;99.90;;;;;;5002762;28;20072;-81
2021/05/07 09:47:58;;;;;;;6.20;1.65;;;9.30;99.90;;;;;;4991704;28;20426;-80
2021/05/07 09:50:36;;;;;;;4.55;1.80;;;9.50;99.90;;;;;;5006577;28;20033;-80
2021/05/07 09:53:14;;;;;;;7.75;1.90;;;9.80;99.90;;;;;;5015006;28;20031;-80
2021/05/07 09:55:40;;;;;;;3.08;1.63;;;10.30;99.90;;;;;;5007779;28;20422;-80
2021/05/07 09:58:06;;;;;;;7.53;1.67;;;10.40;99.90;;;;;;5007861;28;20034;-79
2021/05/07 10:00:32;;;;;;;5.78;1.42;;;10.70;99.90;;;;;;5007675;28;20048;-79
2021/05/07 10:02:58;;;;;;;14.35;2.50;;;10.70;99.90;;;;;;5000144;28;20026;-80
2021/05/07 10:05:24;;;;;;;13.68;5.32;;;10.80;99.90;;;;;;4999660;28;20025;-79
2021/05/07 10:07:50;;;;;;;25.98;12.35;;;10.90;99.90;;;;;;4999612;28;20022;-79
2021/05/07 10:10:17;;;;;;;11.65;4.75;;;11.00;99.90;;;;;;5018384;28;20032;-79
2021/05/07 10:12:45;;;;;;;10.98;4.53;;;10.70;99.90;;;;;;5006591;28;20054;-79
2021/05/07 10:15:11;;;;;;;9.32;1.67;;;10.30;99.90;;;;;;5000606;28;20491;-80
2021/05/07 10:17:48;;;;;;;6.93;2.53;;;10.40;99.90;;;;;;5009156;28;20061;-79
2021/05/07 10:20:41;;;;;;;12.38;5.80;;;9.90;99.90;;;;;;5008722;28;20022;-80
2021/05/07 10:23:15;;;;;;;35.60;13.60;;;9.30;99.90;;;;;;5003327;28;20046;-80
2021/05/07 10:25:56;;;;;;;22.38;9.00;;;9.20;99.90;;;;;;5004350;28;20379;-80
2021/05/07 10:28:22;;;;;;;19.63;8.57;;;9.10;99.90;;;;;;5014088;28;20073;-79
2021/05/07 10:30:48;;;;;;;17.80;9.80;;;9.20;99.90;;;;;;5029346;28;20036;-82
2021/05/07 10:33:18;;;;;;;13.05;6.03;;;9.00;99.90;;;;;;5029359;28;20030;-81
2021/05/07 10:35:53;;;;;;;10.80;5.47;;;9.20;99.90;;;;;;5028611;28;20426;-80
2021/05/07 10:38:19;;;;;;;6.10;1.65;;;9.60;99.90;;;;;;5029325;28;20088;-78
2021/05/07 10:40:46;;;;;;;22.95;7.32;;;10.10;99.90;;;;;;5009381;28;20033;-80
2021/05/07 10:43:13;;;;;;;10.98;5.75;;;10.40;99.90;;;;;;5000517;28;20038;-83
2021/05/07 10:45:42;;;;;;;18.25;9.48;;;10.40;99.90;;;;;;4992559;28;20026;-83
2021/05/07 10:48:13;;;;;;;10.98;4.00;;;10.60;99.90;;;;;;4994224;28;20045;-80
2021/05/07 10:50:42;;;;;;;19.65;11.00;;;10.90;99.90;;;;;;5011819;28;20022;-79
2021/05/07 10:53:09;;;;;;;17.40;7.88;;;11.20;99.90;;;;;;5013820;28;20064;-79
2021/05/07 10:55:35;;;;;;;61.67;35.50;;;11.10;99.90;;;;;;5013178;28;20379;-79
2021/05/07 10:58:01;;;;;;;34.58;19.55;;;10.80;99.90;;;;;;5012401;28;20030;-79
2021/05/07 11:00:39;;;;;;;28.67;15.80;;;10.70;99.90;;;;;;5013636;28;20506;-80
2021/05/07 11:03:16;;;;;;;42.78;20.52;;;10.30;99.90;;;;;;5012388;28;20482;-80
2021/05/07 11:05:46;;;;;;;39.50;19.70;;;10.30;99.90;;;;;;5012909;28;20478;-83
2021/05/07 11:08:12;;;;;;;55.97;28.98;;;11.00;99.90;;;;;;5012203;28;20613;-80
2021/05/07 11:10:38;;;;;;;38.22;19.05;;;10.50;99.90;;;;;;5012192;28;20116;-79
2021/05/07 11:13:06;;;;;;;59.00;30.40;;;10.00;99.90;;;;;;5007643;28;20108;-80
2021/05/07 11:15:31;;;;;;;10.45;6.82;;;9.60;99.90;;;;;;5017992;28;20085;-78
2021/05/07 11:18:05;;;;;;;9.27;1.88;;;9.60;99.90;;;;;;5013145;28;20164;-79
2021/05/07 11:20:37;;;;;;;;;;;9.80;99.90;;;;;;5028900;28;20105;-78
2021/05/07 11:23:04;;;;;;;6.75;2.20;;;9.80;99.90;;;;;;5028309;28;19920;-79
2021/05/07 11:25:33;;;;;;;4.18;2.38;;;9.80;99.90;;;;;;5012595;28;20026;-80
2021/05/07 11:28:19;;;;;;;8.65;3.55;;;9.80;99.90;;;;;;5013023;28;20045;-76
2021/05/07 11:30:56;;;;;;;7.00;2.42;;;9.60;99.90;;;;;;5013142;28;20030;-76
2021/05/07 11:33:28;;;;;;;4.35;2.33;;;9.70;99.90;;;;;;5013119;28;20022;-77
2021/05/07 11:36:10;;;;;;;6.82;2.33;;;9.80;99.90;;;;;;5012408;28;20060;-79
2021/05/07 11:38:38;;;;;;;7.03;2.42;;;9.80;99.90;;;;;;5028090;28;20022;-78
2021/05/07 11:41:15;;;;;;;5.63;2.00;;;10.10;99.90;;;;;;5028023;28;20394;-79
2021/05/07 11:43:40;;;;;;;13.77;2.92;;;10.90;99.90;;;;;;5027563;28;20079;-79
2021/05/07 11:46:07;;;;;;;8.95;1.73;;;10.90;99.90;;;;;;5012524;28;20034;-77
2021/05/07 11:48:34;;;;;;;8.63;1.92;;;10.40;99.90;;;;;;5012149;28;20053;-79
2021/05/07 11:51:07;;;;;;;6.63;1.33;;;10.00;99.90;;;;;;5012556;28;20033;-80
2021/05/07 11:53:34;;;;;;;7.97;1.95;;;10.00;99.90;;;;;;5012474;28;20062;-77
2021/05/07 11:56:00;;;;;;;6.88;1.70;;;10.30;99.90;;;;;;5010766;28;20030;-77
2021/05/07 11:58:33;;;;;;;6.78;2.00;;;10.50;99.90;;;;;;5012699;28;20041;-78
2021/05/07 12:00:59;;;;;;;15.38;4.30;;;11.30;99.90;;;;;;5012545;28;20053;-79
2021/05/07 12:03:38;;;;;;;9.07;2.45;;;12.10;99.90;;;;;;5012589;28;20088;-78
2021/05/07 12:06:21;;;;;;;12.73;1.50;;;11.70;99.90;;;;;;5012190;28;20498;-78
2021/05/07 12:08:48;;;;;;;9.93;2.40;;;11.20;99.90;;;;;;5012560;28;20038;-78
2021/05/07 12:11:15;;;;;;;11.45;2.60;;;10.40;99.90;;;;;;5012392;28;20038;-77
2021/05/07 12:13:41;;;;;;;5.43;1.88;;;10.50;99.90;;;;;;5010512;28;20507;-77
2021/05/07 12:16:08;;;;;;;13.02;4.38;;;10.90;99.90;;;;;;5012200;28;20038;-77
2021/05/07 12:18:37;;;;;;;6.97;1.48;;;10.60;99.90;;;;;;5012256;28;20032;-77
2021/05/07 12:21:04;;;;;;;3.78;1.48;;;10.60;99.90;;;;;;5010993;28;20028;-78
2021/05/07 12:23:46;;;;;;;9.73;1.40;;;10.00;99.90;;;;;;5011968;28;20033;-77
2021/05/07 12:26:12;;;;;;;10.02;4.88;;;9.80;99.90;;;;;;5012329;28;20060;-77
2021/05/07 12:28:38;;;;;;;6.00;2.00;;;10.40;99.90;;;;;;5012189;28;20022;-78
2021/05/07 12:31:09;;;;;;;7.25;1.55;;;10.60;99.90;;;;;;5012155;28;20022;-77
2021/05/07 12:33:36;;;;;;;8.98;4.60;;;10.70;99.90;;;;;;5011903;28;20040;-77
2021/05/07 12:36:03;;;;;;;15.85;1.92;;;11.20;99.90;;;;;;5011706;28;20021;-82
2021/05/07 12:38:33;;;;;;;8.13;2.22;;;11.50;99.90;;;;;;5010848;28;20026;-78
2021/05/07 12:41:10;;;;;;;7.85;1.98;;;12.30;99.90;;;;;;5010732;28;20383;-78
2021/05/07 12:43:42;;;;;;;4.57;1.10;;;12.90;99.90;;;;;;5011796;28;20025;-78
2021/05/07 12:46:08;;;;;;;8.95;2.00;;;12.60;99.90;;;;;;5010391;28;20105;-77
2021/05/07 12:48:34;;;;;;;11.40;1.58;;;12.00;99.90;;;;;;5011756;28;20022;-77